sensor_id;sensor_type;location;lat;lon;timestamp;P1;durP1;ratioP1;P2;durP2;ratioP2
18501;SDS011;68437;52.236;5.710;2023-11-22T00:01:57;44.53;;;19.70;;
18501;SDS011;68437;52.236;5.710;2023-11-22T00:04:23;44.40;;;19.97;;
18501;SDS011;68437;52.236;5.710;2023-11-22T00:06:51;43.15;;;19.35;;
18501;SDS011;68437;52.236;5.710;2023-11-22T00:09:17;43.77;;;19.37;;
18501;SDS011;68437;52.236;5.710;2023-11-22T00:11:47;45.30;;;19.03;;
18501;SDS011;68437;52.236;5.710;2023-11-22T00:14:16;42.00;;;19.37;;
18501;SDS011;68437;52.236;5.710;2023-11-22T00:16:42;46.43;;;20.00;;
18501;SDS011;68437;52.236;5.710;2023-11-22T00:19:09;47.50;;;20.30;;
18501;SDS011;68437;52.236;5.710;2023-11-22T00:21:36;43.20;;;19.90;;
18501;SDS011;68437;52.236;5.710;2023-11-22T00:24:06;47.43;;;20.60;;
18501;SDS011;68437;52.236;5.710;2023-11-22T00:26:33;47.87;;;20.63;;
18501;SDS011;68437;52.236;5.710;2023-11-22T00:29:00;46.83;;;19.53;;
18501;SDS011;68437;52.236;5.710;2023-11-22T00:31:28;57.13;;;21.70;;
18501;SDS011;68437;52.236;5.710;2023-11-22T00:33:55;44.77;;;19.97;;
18501;SDS011;68437;52.236;5.710;2023-11-22T00:36:22;47.43;;;20.90;;
18501;SDS011;68437;52.236;5.710;2023-11-22T00:38:49;46.63;;;20.30;;
18501;SDS011;68437;52.236;5.710;2023-11-22T00:41:16;51.37;;;20.70;;
18501;SDS011;68437;52.236;5.710;2023-11-22T00:43:43;46.67;;;19.93;;
18501;SDS011;68437;52.236;5.710;2023-11-22T00:46:10;52.23;;;20.73;;
18501;SDS011;68437;52.236;5.710;2023-11-22T00:48:38;48.87;;;20.60;;
18501;SDS011;68437;52.236;5.710;2023-11-22T00:51:05;50.97;;;21.00;;
18501;SDS011;68437;52.236;5.710;2023-11-22T00:53:34;49.93;;;21.60;;
18501;SDS011;68437;52.236;5.710;2023-11-22T00:56:02;47.30;;;20.23;;
18501;SDS011;68437;52.236;5.710;2023-11-22T00:58:29;48.97;;;20.53;;
18501;SDS011;68437;52.236;5.710;2023-11-22T01:00:55;53.83;;;21.00;;
18501;SDS011;68437;52.236;5.710;2023-11-22T01:03:22;44.07;;;19.37;;
18501;SDS011;68437;52.236;5.710;2023-11-22T01:05:50;51.70;;;20.70;;
18501;SDS011;68437;52.236;5.710;2023-11-22T01:08:18;45.43;;;20.07;;
18501;SDS011;68437;52.236;5.710;2023-11-22T01:10:45;50.13;;;20.20;;
18501;SDS011;68437;52.236;5.710;2023-11-22T01:13:12;48.17;;;20.30;;
18501;SDS011;68437;52.236;5.710;2023-11-22T01:15:40;52.73;;;20.07;;
18501;SDS011;68437;52.236;5.710;2023-11-22T01:18:07;53.80;;;21.40;;
18501;SDS011;68437;52.236;5.710;2023-11-22T01:20:33;58.57;;;23.03;;
18501;SDS011;68437;52.236;5.710;2023-11-22T01:23:02;51.33;;;21.00;;
18501;SDS011;68437;52.236;5.710;2023-11-22T01:25:29;62.97;;;22.60;;
18501;SDS011;68437;52.236;5.710;2023-11-22T01:27:56;56.60;;;22.40;;
18501;SDS011;68437;52.236;5.710;2023-11-22T01:30:22;60.20;;;21.87;;
18501;SDS011;68437;52.236;5.710;2023-11-22T01:32:49;57.40;;;22.70;;
18501;SDS011;68437;52.236;5.710;2023-11-22T01:35:16;55.77;;;21.93;;
18501;SDS011;68437;52.236;5.710;2023-11-22T01:37:43;60.03;;;22.47;;
18501;SDS011;68437;52.236;5.710;2023-11-22T01:40:11;54.43;;;22.50;;
18501;SDS011;68437;52.236;5.710;2023-11-22T01:42:38;56.57;;;21.67;;
18501;SDS011;68437;52.236;5.710;2023-11-22T01:45:06;55.17;;;21.57;;
18501;SDS011;68437;52.236;5.710;2023-11-22T01:47:34;59.60;;;22.27;;
18501;SDS011;68437;52.236;5.710;2023-11-22T01:50:01;54.47;;;22.17;;
18501;SDS011;68437;52.236;5.710;2023-11-22T01:52:30;66.20;;;23.27;;
18501;SDS011;68437;52.236;5.710;2023-11-22T01:54:57;55.23;;;21.60;;
18501;SDS011;68437;52.236;5.710;2023-11-22T01:57:25;53.57;;;21.63;;
18501;SDS011;68437;52.236;5.710;2023-11-22T01:59:52;55.43;;;21.07;;
18501;SDS011;68437;52.236;5.710;2023-11-22T02:02:19;63.40;;;23.00;;
18501;SDS011;68437;52.236;5.710;2023-11-22T02:04:46;60.47;;;22.83;;
18501;SDS011;68437;52.236;5.710;2023-11-22T02:07:13;59.17;;;21.75;;
18501;SDS011;68437;52.236;5.710;2023-11-22T02:09:40;59.77;;;22.10;;
18501;SDS011;68437;52.236;5.710;2023-11-22T02:12:07;55.47;;;21.33;;
18501;SDS011;68437;52.236;5.710;2023-11-22T02:14:36;51.13;;;20.73;;
18501;SDS011;68437;52.236;5.710;2023-11-22T02:17:03;54.33;;;20.73;;
18501;SDS011;68437;52.236;5.710;2023-11-22T02:19:30;53.37;;;20.70;;
18501;SDS011;68437;52.236;5.710;2023-11-22T02:21:58;56.80;;;20.40;;
18501;SDS011;68437;52.236;5.710;2023-11-22T02:24:26;50.70;;;19.87;;
18501;SDS011;68437;52.236;5.710;2023-11-22T02:26:53;52.73;;;20.20;;
18501;SDS011;68437;52.236;5.710;2023-11-22T02:29:20;49.70;;;19.43;;
18501;SDS011;68437;52.236;5.710;2023-11-22T02:31:48;47.40;;;19.33;;
18501;SDS011;68437;52.236;5.710;2023-11-22T02:34:15;51.17;;;19.90;;
18501;SDS011;68437;52.236;5.710;2023-11-22T02:36:42;48.27;;;19.83;;
18501;SDS011;68437;52.236;5.710;2023-11-22T02:39:09;45.70;;;18.93;;
18501;SDS011;68437;52.236;5.710;2023-11-22T02:41:40;47.83;;;19.47;;
18501;SDS011;68437;52.236;5.710;2023-11-22T02:44:06;47.87;;;18.60;;
18501;SDS011;68437;52.236;5.710;2023-11-22T02:46:33;47.97;;;18.80;;
18501;SDS011;68437;52.236;5.710;2023-11-22T02:49:00;50.77;;;19.03;;
18501;SDS011;68437;52.236;5.710;2023-11-22T02:51:27;50.23;;;18.60;;
18501;SDS011;68437;52.236;5.710;2023-11-22T02:53:53;49.07;;;18.80;;
18501;SDS011;68437;52.236;5.710;2023-11-22T02:56:20;54.00;;;19.77;;
18501;SDS011;68437;52.236;5.710;2023-11-22T02:58:48;47.63;;;19.30;;
18501;SDS011;68437;52.236;5.710;2023-11-22T03:01:15;50.63;;;19.47;;
18501;SDS011;68437;52.236;5.710;2023-11-22T03:03:42;51.03;;;18.43;;
18501;SDS011;68437;52.236;5.710;2023-11-22T03:06:09;55.13;;;19.27;;
18501;SDS011;68437;52.236;5.710;2023-11-22T03:08:36;53.57;;;19.33;;
18501;SDS011;68437;52.236;5.710;2023-11-22T03:11:03;53.20;;;18.83;;
18501;SDS011;68437;52.236;5.710;2023-11-22T03:13:30;48.70;;;19.03;;
18501;SDS011;68437;52.236;5.710;2023-11-22T03:15:58;53.93;;;19.73;;
18501;SDS011;68437;52.236;5.710;2023-11-22T03:18:25;51.37;;;18.53;;
18501;SDS011;68437;52.236;5.710;2023-11-22T03:20:52;51.27;;;19.00;;
18501;SDS011;68437;52.236;5.710;2023-11-22T03:23:20;50.17;;;19.33;;
18501;SDS011;68437;52.236;5.710;2023-11-22T03:25:47;49.97;;;18.63;;
18501;SDS011;68437;52.236;5.710;2023-11-22T03:28:14;51.20;;;17.90;;
18501;SDS011;68437;52.236;5.710;2023-11-22T03:30:41;49.80;;;19.03;;
18501;SDS011;68437;52.236;5.710;2023-11-22T03:33:09;49.73;;;18.97;;
18501;SDS011;68437;52.236;5.710;2023-11-22T03:35:36;51.30;;;17.83;;
18501;SDS011;68437;52.236;5.710;2023-11-22T03:38:02;51.07;;;18.83;;
18501;SDS011;68437;52.236;5.710;2023-11-22T03:40:29;52.03;;;19.30;;
18501;SDS011;68437;52.236;5.710;2023-11-22T03:42:56;50.83;;;19.40;;
18501;SDS011;68437;52.236;5.710;2023-11-22T03:45:23;50.90;;;18.33;;
18501;SDS011;68437;52.236;5.710;2023-11-22T03:47:49;48.03;;;18.50;;
18501;SDS011;68437;52.236;5.710;2023-11-22T03:50:18;48.03;;;17.87;;
18501;SDS011;68437;52.236;5.710;2023-11-22T03:52:44;52.30;;;18.83;;
18501;SDS011;68437;52.236;5.710;2023-11-22T03:55:11;47.57;;;18.30;;
18501;SDS011;68437;52.236;5.710;2023-11-22T03:57:39;49.87;;;18.60;;
18501;SDS011;68437;52.236;5.710;2023-11-22T04:00:06;51.03;;;18.20;;
18501;SDS011;68437;52.236;5.710;2023-11-22T04:02:34;48.30;;;18.13;;
18501;SDS011;68437;52.236;5.710;2023-11-22T04:05:01;46.30;;;17.73;;
18501;SDS011;68437;52.236;5.710;2023-11-22T04:07:29;51.57;;;18.37;;
18501;SDS011;68437;52.236;5.710;2023-11-22T04:09:57;50.77;;;18.47;;
18501;SDS011;68437;52.236;5.710;2023-11-22T04:12:24;46.90;;;17.87;;
18501;SDS011;68437;52.236;5.710;2023-11-22T04:14:51;51.27;;;18.63;;
18501;SDS011;68437;52.236;5.710;2023-11-22T04:17:18;47.87;;;17.43;;
18501;SDS011;68437;52.236;5.710;2023-11-22T04:19:45;45.83;;;17.33;;
18501;SDS011;68437;52.236;5.710;2023-11-22T04:22:11;50.10;;;18.07;;
18501;SDS011;68437;52.236;5.710;2023-11-22T04:24:40;44.10;;;17.13;;
18501;SDS011;68437;52.236;5.710;2023-11-22T04:27:08;43.20;;;16.77;;
18501;SDS011;68437;52.236;5.710;2023-11-22T04:29:35;47.80;;;17.47;;
18501;SDS011;68437;52.236;5.710;2023-11-22T04:32:02;44.60;;;17.30;;
18501;SDS011;68437;52.236;5.710;2023-11-22T04:34:29;41.57;;;16.73;;
18501;SDS011;68437;52.236;5.710;2023-11-22T04:36:57;46.27;;;16.83;;
18501;SDS011;68437;52.236;5.710;2023-11-22T04:39:24;39.67;;;15.43;;
18501;SDS011;68437;52.236;5.710;2023-11-22T04:41:52;41.00;;;15.10;;
18501;SDS011;68437;52.236;5.710;2023-11-22T04:44:19;44.83;;;16.10;;
18501;SDS011;68437;52.236;5.710;2023-11-22T04:46:46;47.93;;;16.90;;
18501;SDS011;68437;52.236;5.710;2023-11-22T04:49:12;46.87;;;17.67;;
18501;SDS011;68437;52.236;5.710;2023-11-22T04:51:39;45.97;;;16.90;;
18501;SDS011;68437;52.236;5.710;2023-11-22T04:54:08;45.37;;;16.90;;
18501;SDS011;68437;52.236;5.710;2023-11-22T04:56:35;45.90;;;16.47;;
18501;SDS011;68437;52.236;5.710;2023-11-22T04:59:03;42.90;;;15.53;;
18501;SDS011;68437;52.236;5.710;2023-11-22T05:01:31;49.00;;;17.13;;
18501;SDS011;68437;52.236;5.710;2023-11-22T05:03:58;43.87;;;16.20;;
18501;SDS011;68437;52.236;5.710;2023-11-22T05:06:27;49.77;;;17.43;;
18501;SDS011;68437;52.236;5.710;2023-11-22T05:08:55;48.17;;;17.37;;
18501;SDS011;68437;52.236;5.710;2023-11-22T05:11:20;41.13;;;15.80;;
18501;SDS011;68437;52.236;5.710;2023-11-22T05:13:47;41.63;;;15.17;;
18501;SDS011;68437;52.236;5.710;2023-11-22T05:16:16;46.53;;;16.70;;
18501;SDS011;68437;52.236;5.710;2023-11-22T05:18:43;43.00;;;15.90;;
18501;SDS011;68437;52.236;5.710;2023-11-22T05:21:10;47.43;;;16.47;;
18501;SDS011;68437;52.236;5.710;2023-11-22T05:23:37;44.33;;;16.50;;
18501;SDS011;68437;52.236;5.710;2023-11-22T05:26:03;42.13;;;16.10;;
18501;SDS011;68437;52.236;5.710;2023-11-22T05:28:30;44.27;;;16.87;;
18501;SDS011;68437;52.236;5.710;2023-11-22T05:30:58;50.33;;;17.90;;
18501;SDS011;68437;52.236;5.710;2023-11-22T05:33:26;43.73;;;16.53;;
18501;SDS011;68437;52.236;5.710;2023-11-22T05:35:53;45.70;;;16.43;;
18501;SDS011;68437;52.236;5.710;2023-11-22T05:38:20;49.20;;;16.77;;
18501;SDS011;68437;52.236;5.710;2023-11-22T05:40:50;46.60;;;17.13;;
18501;SDS011;68437;52.236;5.710;2023-11-22T05:43:17;48.00;;;17.53;;
18501;SDS011;68437;52.236;5.710;2023-11-22T05:45:50;53.17;;;17.57;;
18501;SDS011;68437;52.236;5.710;2023-11-22T05:48:19;50.80;;;17.50;;
18501;SDS011;68437;52.236;5.710;2023-11-22T05:50:47;48.40;;;16.63;;
18501;SDS011;68437;52.236;5.710;2023-11-22T05:53:14;49.07;;;17.13;;
18501;SDS011;68437;52.236;5.710;2023-11-22T05:55:44;48.53;;;17.10;;
18501;SDS011;68437;52.236;5.710;2023-11-22T05:58:12;48.10;;;17.10;;
18501;SDS011;68437;52.236;5.710;2023-11-22T06:00:41;46.43;;;17.07;;
18501;SDS011;68437;52.236;5.710;2023-11-22T06:03:10;49.77;;;17.57;;
18501;SDS011;68437;52.236;5.710;2023-11-22T06:05:38;49.80;;;16.67;;
18501;SDS011;68437;52.236;5.710;2023-11-22T06:08:06;48.07;;;16.43;;
18501;SDS011;68437;52.236;5.710;2023-11-22T06:10:35;49.80;;;18.67;;
18501;SDS011;68437;52.236;5.710;2023-11-22T06:13:03;58.93;;;22.07;;
18501;SDS011;68437;52.236;5.710;2023-11-22T06:15:30;54.33;;;21.83;;
18501;SDS011;68437;52.236;5.710;2023-11-22T06:17:56;53.73;;;20.00;;
18501;SDS011;68437;52.236;5.710;2023-11-22T06:20:26;51.77;;;21.00;;
18501;SDS011;68437;52.236;5.710;2023-11-22T06:22:53;51.47;;;20.27;;
18501;SDS011;68437;52.236;5.710;2023-11-22T06:25:21;52.50;;;19.00;;
18501;SDS011;68437;52.236;5.710;2023-11-22T06:27:48;49.70;;;18.47;;
18501;SDS011;68437;52.236;5.710;2023-11-22T06:30:15;50.50;;;19.57;;
18501;SDS011;68437;52.236;5.710;2023-11-22T06:32:42;72.17;;;27.07;;
18501;SDS011;68437;52.236;5.710;2023-11-22T06:35:09;53.97;;;20.03;;
18501;SDS011;68437;52.236;5.710;2023-11-22T06:37:36;52.20;;;19.90;;
18501;SDS011;68437;52.236;5.710;2023-11-22T06:40:04;52.40;;;18.77;;
18501;SDS011;68437;52.236;5.710;2023-11-22T06:42:35;58.23;;;19.97;;
18501;SDS011;68437;52.236;5.710;2023-11-22T06:45:02;55.83;;;19.70;;
18501;SDS011;68437;52.236;5.710;2023-11-22T06:47:29;55.70;;;20.93;;
18501;SDS011;68437;52.236;5.710;2023-11-22T06:49:56;50.87;;;20.80;;
18501;SDS011;68437;52.236;5.710;2023-11-22T06:52:23;55.80;;;21.23;;
18501;SDS011;68437;52.236;5.710;2023-11-22T06:54:50;53.03;;;20.23;;
18501;SDS011;68437;52.236;5.710;2023-11-22T06:57:17;59.70;;;21.90;;
18501;SDS011;68437;52.236;5.710;2023-11-22T06:59:45;57.87;;;22.30;;
18501;SDS011;68437;52.236;5.710;2023-11-22T07:02:12;61.23;;;21.50;;
18501;SDS011;68437;52.236;5.710;2023-11-22T07:04:39;62.00;;;21.57;;
18501;SDS011;68437;52.236;5.710;2023-11-22T07:07:06;63.53;;;22.03;;
18501;SDS011;68437;52.236;5.710;2023-11-22T07:09:36;50.30;;;20.23;;
18501;SDS011;68437;52.236;5.710;2023-11-22T07:12:05;62.97;;;24.10;;
18501;SDS011;68437;52.236;5.710;2023-11-22T07:14:35;62.07;;;22.90;;
18501;SDS011;68437;52.236;5.710;2023-11-22T07:17:06;63.17;;;21.43;;
18501;SDS011;68437;52.236;5.710;2023-11-22T07:19:33;62.07;;;21.30;;
18501;SDS011;68437;52.236;5.710;2023-11-22T07:22:03;65.77;;;21.77;;
18501;SDS011;68437;52.236;5.710;2023-11-22T07:24:40;66.53;;;22.30;;
18501;SDS011;68437;52.236;5.710;2023-11-22T07:27:10;66.53;;;22.47;;
18501;SDS011;68437;52.236;5.710;2023-11-22T07:29:37;68.90;;;24.33;;
18501;SDS011;68437;52.236;5.710;2023-11-22T07:32:07;66.07;;;22.47;;
18501;SDS011;68437;52.236;5.710;2023-11-22T07:34:39;70.67;;;23.70;;
18501;SDS011;68437;52.236;5.710;2023-11-22T07:37:06;67.20;;;22.53;;
18501;SDS011;68437;52.236;5.710;2023-11-22T07:39:33;65.13;;;22.20;;
18501;SDS011;68437;52.236;5.710;2023-11-22T07:42:01;63.47;;;21.73;;
18501;SDS011;68437;52.236;5.710;2023-11-22T07:44:28;65.10;;;22.83;;
18501;SDS011;68437;52.236;5.710;2023-11-22T07:46:57;67.67;;;22.13;;
18501;SDS011;68437;52.236;5.710;2023-11-22T07:49:26;65.97;;;21.47;;
18501;SDS011;68437;52.236;5.710;2023-11-22T07:51:55;70.60;;;23.27;;
18501;SDS011;68437;52.236;5.710;2023-11-22T07:54:22;69.43;;;22.80;;
18501;SDS011;68437;52.236;5.710;2023-11-22T07:56:51;67.80;;;23.73;;
18501;SDS011;68437;52.236;5.710;2023-11-22T07:59:18;75.80;;;23.67;;
18501;SDS011;68437;52.236;5.710;2023-11-22T08:01:45;72.77;;;23.83;;
18501;SDS011;68437;52.236;5.710;2023-11-22T08:04:13;71.77;;;23.23;;
18501;SDS011;68437;52.236;5.710;2023-11-22T08:06:41;72.77;;;24.20;;
18501;SDS011;68437;52.236;5.710;2023-11-22T08:09:07;66.53;;;22.90;;
18501;SDS011;68437;52.236;5.710;2023-11-22T08:11:34;64.90;;;22.57;;
18501;SDS011;68437;52.236;5.710;2023-11-22T08:14:01;65.03;;;23.57;;
18501;SDS011;68437;52.236;5.710;2023-11-22T08:16:29;70.13;;;23.93;;
18501;SDS011;68437;52.236;5.710;2023-11-22T08:18:56;70.73;;;24.17;;
18501;SDS011;68437;52.236;5.710;2023-11-22T08:21:22;74.53;;;23.50;;
18501;SDS011;68437;52.236;5.710;2023-11-22T08:23:51;68.13;;;22.30;;
18501;SDS011;68437;52.236;5.710;2023-11-22T08:26:18;75.80;;;25.07;;
18501;SDS011;68437;52.236;5.710;2023-11-22T08:28:45;65.83;;;23.73;;
18501;SDS011;68437;52.236;5.710;2023-11-22T08:31:12;67.37;;;24.53;;
18501;SDS011;68437;52.236;5.710;2023-11-22T08:33:41;72.70;;;25.90;;
18501;SDS011;68437;52.236;5.710;2023-11-22T08:36:09;64.37;;;23.23;;
18501;SDS011;68437;52.236;5.710;2023-11-22T08:38:36;69.43;;;23.17;;
18501;SDS011;68437;52.236;5.710;2023-11-22T08:41:07;62.17;;;22.77;;
18501;SDS011;68437;52.236;5.710;2023-11-22T08:43:38;67.47;;;23.23;;
18501;SDS011;68437;52.236;5.710;2023-11-22T08:46:05;65.87;;;22.63;;
18501;SDS011;68437;52.236;5.710;2023-11-22T08:48:33;68.63;;;24.40;;
18501;SDS011;68437;52.236;5.710;2023-11-22T08:51:00;69.20;;;24.73;;
18501;SDS011;68437;52.236;5.710;2023-11-22T08:53:29;71.43;;;25.97;;
18501;SDS011;68437;52.236;5.710;2023-11-22T08:55:55;67.70;;;24.63;;
18501;SDS011;68437;52.236;5.710;2023-11-22T08:58:24;59.00;;;22.50;;
18501;SDS011;68437;52.236;5.710;2023-11-22T09:00:50;57.73;;;22.60;;
18501;SDS011;68437;52.236;5.710;2023-11-22T09:03:18;65.43;;;23.10;;
18501;SDS011;68437;52.236;5.710;2023-11-22T09:05:45;62.93;;;22.43;;
18501;SDS011;68437;52.236;5.710;2023-11-22T09:08:14;61.63;;;22.20;;
18501;SDS011;68437;52.236;5.710;2023-11-22T09:10:41;58.43;;;22.00;;
18501;SDS011;68437;52.236;5.710;2023-11-22T09:13:08;58.97;;;22.43;;
18501;SDS011;68437;52.236;5.710;2023-11-22T09:15:37;57.23;;;21.40;;
18501;SDS011;68437;52.236;5.710;2023-11-22T09:18:04;55.47;;;20.50;;
18501;SDS011;68437;52.236;5.710;2023-11-22T09:20:31;57.33;;;21.67;;
18501;SDS011;68437;52.236;5.710;2023-11-22T09:22:58;52.50;;;20.87;;
18501;SDS011;68437;52.236;5.710;2023-11-22T09:25:25;58.00;;;21.27;;
18501;SDS011;68437;52.236;5.710;2023-11-22T09:27:54;57.20;;;21.53;;
18501;SDS011;68437;52.236;5.710;2023-11-22T09:30:24;56.63;;;20.97;;
18501;SDS011;68437;52.236;5.710;2023-11-22T09:33:02;59.93;;;22.13;;
18501;SDS011;68437;52.236;5.710;2023-11-22T09:35:30;49.57;;;20.50;;
18501;SDS011;68437;52.236;5.710;2023-11-22T09:37:57;55.67;;;20.70;;
18501;SDS011;68437;52.236;5.710;2023-11-22T09:40:24;57.80;;;22.57;;
18501;SDS011;68437;52.236;5.710;2023-11-22T09:42:53;53.13;;;21.23;;
18501;SDS011;68437;52.236;5.710;2023-11-22T09:45:20;52.10;;;21.13;;
18501;SDS011;68437;52.236;5.710;2023-11-22T09:47:47;54.60;;;22.50;;
18501;SDS011;68437;52.236;5.710;2023-11-22T09:50:17;56.70;;;21.10;;
18501;SDS011;68437;52.236;5.710;2023-11-22T09:52:49;55.63;;;21.97;;
18501;SDS011;68437;52.236;5.710;2023-11-22T09:55:19;59.88;;;22.33;;
18501;SDS011;68437;52.236;5.710;2023-11-22T09:57:47;65.67;;;24.70;;
18501;SDS011;68437;52.236;5.710;2023-11-22T10:00:15;61.90;;;24.67;;
18501;SDS011;68437;52.236;5.710;2023-11-22T10:02:44;57.73;;;24.07;;
18501;SDS011;68437;52.236;5.710;2023-11-22T10:05:11;56.13;;;22.60;;
18501;SDS011;68437;52.236;5.710;2023-11-22T10:07:39;59.93;;;23.37;;
18501;SDS011;68437;52.236;5.710;2023-11-22T10:10:06;52.37;;;22.10;;
18501;SDS011;68437;52.236;5.710;2023-11-22T10:12:36;53.13;;;22.97;;
18501;SDS011;68437;52.236;5.710;2023-11-22T10:15:11;59.03;;;23.47;;
18501;SDS011;68437;52.236;5.710;2023-11-22T10:17:39;55.90;;;23.27;;
18501;SDS011;68437;52.236;5.710;2023-11-22T10:20:07;55.83;;;22.80;;
18501;SDS011;68437;52.236;5.710;2023-11-22T10:22:44;55.13;;;22.83;;
18501;SDS011;68437;52.236;5.710;2023-11-22T10:25:13;55.97;;;22.80;;
18501;SDS011;68437;52.236;5.710;2023-11-22T10:27:43;49.73;;;22.67;;
18501;SDS011;68437;52.236;5.710;2023-11-22T10:30:11;51.53;;;21.17;;
18501;SDS011;68437;52.236;5.710;2023-11-22T10:32:38;53.92;;;21.70;;
18501;SDS011;68437;52.236;5.710;2023-11-22T10:35:05;55.03;;;22.50;;
18501;SDS011;68437;52.236;5.710;2023-11-22T10:37:33;47.97;;;22.07;;
18501;SDS011;68437;52.236;5.710;2023-11-22T10:40:02;48.57;;;21.40;;
18501;SDS011;68437;52.236;5.710;2023-11-22T10:42:31;51.03;;;20.90;;
18501;SDS011;68437;52.236;5.710;2023-11-22T10:45:00;53.80;;;21.60;;
18501;SDS011;68437;52.236;5.710;2023-11-22T10:47:29;50.87;;;22.03;;
18501;SDS011;68437;52.236;5.710;2023-11-22T10:49:56;51.38;;;21.52;;
18501;SDS011;68437;52.236;5.710;2023-11-22T10:52:26;48.40;;;20.90;;
18501;SDS011;68437;52.236;5.710;2023-11-22T10:54:55;49.42;;;20.55;;
18501;SDS011;68437;52.236;5.710;2023-11-22T10:57:31;45.27;;;20.70;;
18501;SDS011;68437;52.236;5.710;2023-11-22T11:00:00;49.73;;;21.00;;
18501;SDS011;68437;52.236;5.710;2023-11-22T11:02:33;48.92;;;21.25;;
18501;SDS011;68437;52.236;5.710;2023-11-22T11:05:08;47.13;;;20.13;;
18501;SDS011;68437;52.236;5.710;2023-11-22T11:07:43;48.70;;;20.47;;
18501;SDS011;68437;52.236;5.710;2023-11-22T11:10:16;51.73;;;21.93;;
18501;SDS011;68437;52.236;5.710;2023-11-22T11:12:46;48.28;;;22.13;;
18501;SDS011;68437;52.236;5.710;2023-11-22T11:15:13;55.22;;;24.35;;
18501;SDS011;68437;52.236;5.710;2023-11-22T11:17:42;45.67;;;20.60;;
18501;SDS011;68437;52.236;5.710;2023-11-22T11:20:13;48.60;;;20.30;;
18501;SDS011;68437;52.236;5.710;2023-11-22T11:22:42;48.30;;;20.33;;
18501;SDS011;68437;52.236;5.710;2023-11-22T11:25:13;48.70;;;20.87;;
18501;SDS011;68437;52.236;5.710;2023-11-22T11:27:43;44.03;;;19.83;;
18501;SDS011;68437;52.236;5.710;2023-11-22T11:33:09;43.10;;;19.43;;
18501;SDS011;68437;52.236;5.710;2023-11-22T11:35:38;42.72;;;18.33;;
18501;SDS011;68437;52.236;5.710;2023-11-22T11:38:05;41.38;;;18.40;;
18501;SDS011;68437;52.236;5.710;2023-11-22T11:40:35;44.33;;;19.50;;
18501;SDS011;68437;52.236;5.710;2023-11-22T11:43:04;40.00;;;18.63;;
18501;SDS011;68437;52.236;5.710;2023-11-22T11:45:34;39.50;;;18.23;;
18501;SDS011;68437;52.236;5.710;2023-11-22T11:48:04;44.38;;;19.10;;
18501;SDS011;68437;52.236;5.710;2023-11-22T11:50:31;45.67;;;19.83;;
18501;SDS011;68437;52.236;5.710;2023-11-22T11:52:58;40.78;;;19.15;;
18501;SDS011;68437;52.236;5.710;2023-11-22T11:55:25;43.13;;;20.03;;
18501;SDS011;68437;52.236;5.710;2023-11-22T11:57:54;44.78;;;20.35;;
18501;SDS011;68437;52.236;5.710;2023-11-22T12:00:21;52.93;;;26.00;;
18501;SDS011;68437;52.236;5.710;2023-11-22T12:02:49;42.43;;;19.60;;
18501;SDS011;68437;52.236;5.710;2023-11-22T12:05:18;41.73;;;19.33;;
18501;SDS011;68437;52.236;5.710;2023-11-22T12:07:45;46.50;;;20.05;;
18501;SDS011;68437;52.236;5.710;2023-11-22T12:10:13;45.97;;;20.23;;
18501;SDS011;68437;52.236;5.710;2023-11-22T12:12:42;38.47;;;17.17;;
18501;SDS011;68437;52.236;5.710;2023-11-22T12:15:12;40.33;;;18.25;;
18501;SDS011;68437;52.236;5.710;2023-11-22T12:17:40;38.67;;;17.87;;
18501;SDS011;68437;52.236;5.710;2023-11-22T12:20:10;39.50;;;17.58;;
18501;SDS011;68437;52.236;5.710;2023-11-22T12:22:38;40.85;;;19.88;;
18501;SDS011;68437;52.236;5.710;2023-11-22T12:25:07;37.92;;;18.75;;
18501;SDS011;68437;52.236;5.710;2023-11-22T12:27:38;35.45;;;16.83;;
18501;SDS011;68437;52.236;5.710;2023-11-22T12:30:06;33.70;;;16.33;;
18501;SDS011;68437;52.236;5.710;2023-11-22T12:32:39;31.23;;;15.27;;
18501;SDS011;68437;52.236;5.710;2023-11-22T12:35:07;29.08;;;14.52;;
18501;SDS011;68437;52.236;5.710;2023-11-22T12:37:36;28.35;;;14.52;;
18501;SDS011;68437;52.236;5.710;2023-11-22T12:40:07;29.98;;;14.63;;
18501;SDS011;68437;52.236;5.710;2023-11-22T12:42:46;27.88;;;13.20;;
18501;SDS011;68437;52.236;5.710;2023-11-22T12:45:18;25.77;;;12.90;;
18501;SDS011;68437;52.236;5.710;2023-11-22T12:47:51;28.58;;;13.85;;
18501;SDS011;68437;52.236;5.710;2023-11-22T12:50:33;29.38;;;14.35;;
18501;SDS011;68437;52.236;5.710;2023-11-22T12:53:07;31.65;;;15.35;;
18501;SDS011;68437;52.236;5.710;2023-11-22T12:55:36;32.40;;;15.90;;
18501;SDS011;68437;52.236;5.710;2023-11-22T12:58:03;33.03;;;16.00;;
18501;SDS011;68437;52.236;5.710;2023-11-22T13:00:30;34.97;;;16.30;;
18501;SDS011;68437;52.236;5.710;2023-11-22T13:02:59;32.63;;;16.57;;
18501;SDS011;68437;52.236;5.710;2023-11-22T13:05:26;34.92;;;16.45;;
18501;SDS011;68437;52.236;5.710;2023-11-22T13:07:52;35.83;;;17.00;;
18501;SDS011;68437;52.236;5.710;2023-11-22T13:10:19;35.53;;;17.35;;
18501;SDS011;68437;52.236;5.710;2023-11-22T13:12:50;38.83;;;17.23;;
18501;SDS011;68437;52.236;5.710;2023-11-22T13:15:20;38.55;;;18.05;;
18501;SDS011;68437;52.236;5.710;2023-11-22T13:17:48;40.47;;;17.92;;
18501;SDS011;68437;52.236;5.710;2023-11-22T13:20:17;38.83;;;18.00;;
18501;SDS011;68437;52.236;5.710;2023-11-22T13:22:45;40.20;;;18.50;;
18501;SDS011;68437;52.236;5.710;2023-11-22T13:25:12;39.05;;;19.02;;
18501;SDS011;68437;52.236;5.710;2023-11-22T13:27:39;40.25;;;18.25;;
18501;SDS011;68437;52.236;5.710;2023-11-22T13:30:06;40.03;;;18.80;;
18501;SDS011;68437;52.236;5.710;2023-11-22T13:32:33;39.83;;;18.60;;
18501;SDS011;68437;52.236;5.710;2023-11-22T13:35:01;43.90;;;19.05;;
18501;SDS011;68437;52.236;5.710;2023-11-22T13:37:31;47.13;;;22.10;;
18501;SDS011;68437;52.236;5.710;2023-11-22T13:40:00;47.22;;;20.85;;
18501;SDS011;68437;52.236;5.710;2023-11-22T13:42:28;49.88;;;20.27;;
18501;SDS011;68437;52.236;5.710;2023-11-22T13:44:54;55.00;;;24.97;;
18501;SDS011;68437;52.236;5.710;2023-11-22T13:47:21;50.22;;;22.27;;
18501;SDS011;68437;52.236;5.710;2023-11-22T13:49:48;51.53;;;21.87;;
18501;SDS011;68437;52.236;5.710;2023-11-22T13:52:15;46.28;;;20.15;;
18501;SDS011;68437;52.236;5.710;2023-11-22T13:54:43;54.15;;;20.92;;
18501;SDS011;68437;52.236;5.710;2023-11-22T13:57:11;56.03;;;21.48;;
18501;SDS011;68437;52.236;5.710;2023-11-22T13:59:39;56.33;;;21.90;;
18501;SDS011;68437;52.236;5.710;2023-11-22T14:02:06;53.30;;;22.20;;
18501;SDS011;68437;52.236;5.710;2023-11-22T14:04:32;52.60;;;20.58;;
18501;SDS011;68437;52.236;5.710;2023-11-22T14:06:59;58.47;;;23.73;;
18501;SDS011;68437;52.236;5.710;2023-11-22T14:09:26;58.70;;;22.65;;
18501;SDS011;68437;52.236;5.710;2023-11-22T14:11:55;62.83;;;24.73;;
18501;SDS011;68437;52.236;5.710;2023-11-22T14:14:22;62.63;;;24.40;;
18501;SDS011;68437;52.236;5.710;2023-11-22T14:16:49;70.70;;;25.70;;
18501;SDS011;68437;52.236;5.710;2023-11-22T14:19:16;63.53;;;25.45;;
18501;SDS011;68437;52.236;5.710;2023-11-22T14:21:43;68.85;;;24.15;;
18501;SDS011;68437;52.236;5.710;2023-11-22T14:24:10;67.93;;;24.05;;
18501;SDS011;68437;52.236;5.710;2023-11-22T14:26:37;69.53;;;24.90;;
18501;SDS011;68437;52.236;5.710;2023-11-22T14:29:07;75.85;;;27.38;;